This is the latest recevied weather packets stored in our database for station/object Riedlingn. If no packets are shown the sender has not sent any weather packets the latest 10 day(s).
| Time | Temp. | Humidity | Pressure | Rain* | Wind** | Luminosity | Snow |
|---|---|---|---|---|---|---|---|
| 1788143529 | 61° F | 93% | 765.3 mmHg | 0.1 in | - | - | - |
| 1788141729 | 61° F | 92% | 765 mmHg | 0.1 in | - | - | - |
| 1788139931 | 61° F | 92% | 765.1 mmHg | 0.1 in | - | - | - |
| 1788138129 | 62° F | 91% | 765.2 mmHg | 0.04 in | - | - | - |
| 1788136332 | 59° F | 92% | 764.3 mmHg | 0 in | - | - | - |
| 1788134532 | 59° F | 91% | 764 mmHg | 0 in | - | - | - |
| 1788132731 | 60° F | 90% | 763.9 mmHg | 0 in | - | - | - |
| 1788130931 | 60° F | 89% | 763.9 mmHg | 0 in | - | - | - |
| 1788129131 | 61° F | 87% | 764.2 mmHg | 0 in | - | - | - |
| 1788127331 | 63° F | 85% | 764.5 mmHg | 0 in | - | - | - |
| 1788125531 | 64° F | 83% | 764.5 mmHg | 0 in | - | - | - |
| 1788123730 | 65° F | 80% | 764.5 mmHg | 0 in | - | - | - |
| 1788121931 | 66° F | 77% | 764.5 mmHg | 0 in | - | - | - |
| 1788120131 | 67° F | 73% | 764.5 mmHg | 0 in | - | - | - |
| 1788118330 | 68° F | 73% | 764.6 mmHg | 0 in | - | - | - |
| 1788116530 | 70° F | 70% | 764.5 mmHg | 0 in | - | - | - |
| 1788114730 | 73° F | 67% | 764.3 mmHg | 0 in | - | - | - |
| 1788112931 | 75° F | 62% | 764.2 mmHg | 0 in | - | - | - |
| 1788111130 | 78° F | 57% | 764.1 mmHg | 0 in | - | - | - |
| 1788109331 | 79° F | 54% | 764 mmHg | 0 in | - | - | - |
| 1788107531 | 79° F | 54% | 764.1 mmHg | 0 in | - | - | - |
| 1788105731 | 78° F | 57% | 764.2 mmHg | 0 in | - | - | - |
| 1788103931 | 79° F | 57% | 764.3 mmHg | 0 in | - | - | - |
| 1788102130 | 78° F | 57% | 764.3 mmHg | 0 in | - | - | - |
| 1788100331 | 78° F | 58% | 764.4 mmHg | 0 in | - | - | - |
* Rain since midnight (hover to see other rain measurements)
** Current wind speed in m/s (hover to see current wind gust speed)